Station: Amberley  

  Atmospheric Gas Attenuation - ITU Rec 676-11   ----------------- dB/100km -----------------
Date Time Temp RH % AH g/m3 Dew Point Wind Direction Speed kph Gust kph Barometer mB Rainfall Since 9am 24GHz 47GHz 76GHz 122GHz 134GHz 241GHz
08/05 12:30 22 20 3.88 -2 19 26 1018.2 0 9.4 17.5 20.6 53.2 37.7 126.3
08/05 12:20 22.2 19 3.73 -2.5 15 19 1018.3 0 9.0 17.3 20.1 51.9 36.2 120.8
08/05 12:10 22.4 21 4.17 -1 19 22 1018.7 0 10.0 17.8 21.4 55.3 40.4 135.9
08/05 12:00 21 19 3.48 -3.5 15 17 1018.9 0 8.6 17.2 19.7 50.6 34.2 113.8
08/05 11:50 21 19 3.48 -3.5 19 24 1019.3 0 8.6 17.2 19.7 50.7 34.2 113.9
08/05 11:40 21.3 21 3.91 -1.9 15 17 1019.4 0 9.4 17.7 20.9 53.9 38.4 128.5
08/05 11:30 20.6 21 3.76 -2.5 15 17 1019.6 0 9.2 17.7 20.6 53.2 37.2 124.3
08/05 11:20 20.1 23 4 -1.7 13 15 1019.6 0 9.7 18.0 21.5 55.5 39.9 133.6
08/05 11:10 20.5 23 4.09 -1.3 9 11 1019.9 0 9.8 18.1 21.7 56.0 40.6 136.2
08/05 11:00 19.4 24 4 -1.7 15 19 1020.1 0 9.7 18.2 21.7 56.0 40.2 134.8
08/05 10:50 19.4 24 4 -1.7 17 22 1020.4 0 9.7 18.2 21.7 56.0 40.2 134.8
08/05 10:40 18.8 25 4.03 -1.6 13 19 1020.5 0 9.8 18.4 21.9 56.7 40.8 136.9
08/05 10:30 18.4 26 4.09 -1.4 11 15 1020.6 0 9.9 18.5 22.2 57.4 41.7 139.8
08/05 10:20 18.2 27 4.2 -1.1 11 15 1020.7 0 10.1 18.7 22.6 58.5 42.9 144.2
08/05 10:10 18.3 28 4.38 -0.5 19 22 1020.7 0 10.5 18.9 23.2 60.0 44.8 150.7
08/05 10:00 18 29 4.45 -0.3 13 15 1020.9 0 10.7 19.1 23.5 60.8 45.7 153.9
08/05 09:50 17.8 32 4.86 0.9 11 13 1020.9 0 11.5 19.7 24.9 64.5 50.2 169.9
08/05 09:40 17.2 32 4.69 0.4 11 13 1021.1 0 11.2 19.6 24.5 63.5 48.7 164.6
08/05 09:30 16.5 34 4.77 0.6 13 15 1021.1 0 11.4 19.8 25.0 64.8 50.1 169.1
08/05 09:20 16.5 35 4.91 1 11 13 1021.2 0 11.7 20.0 25.5 66.0 51.6 174.5
08/05 09:10 15.3 38 4.96 1.1 13 15 1021.2 0 11.8 20.3 26.0 67.5 52.9 179.1
08/05 09:00 15 40 5.13 1.5 9 11 1021.3 0 12.2 20.6 26.7 69.3 55.1 186.6
08/05 08:50 15 45 5.77 3.2 11 13 1021.2 0 13.5 21.5 28.9 75.3 62.5 212.6
08/05 08:40 13.9 46 5.51 2.5 11 13 1021.3 0 13.0 21.4 28.4 73.8 60.3 204.7
08/05 08:30 13.3 46 5.31 1.9 13 15 1021.3 0 12.6 21.3 27.9 72.5 58.4 197.9
08/05 08:20 13.3 50 5.78 3.1 11 11 1021.2 0 13.6 22.0 29.6 77.0 63.9 217.5
08/05 08:10 12.8 53 5.94 3.5 9 11 1021.1 0 14.0 22.3 30.3 79.0 66.3 225.6
08/05 08:00 11.9 53 5.61 2.6 13 15 1020.9 0 13.3 22.0 29.4 76.6 63.0 214.0
08/05 07:50 11.6 55 5.72 2.9 11 13 1021 0 13.5 22.3 30.0 78.0 64.6 219.5
08/05 07:40 10.8 59 5.83 3.1 9 11 1020.8 0 13.8 22.6 30.7 79.9 66.6 226.4
08/05 07:30 10.2 65 6.19 3.9 7 9 1020.7 0 14.6 23.3 32.3 84.1 71.6 244.0
08/05 07:20 9.4 74 6.69 5 9 9 1020.9 0 15.7 24.3 34.5 90.3 78.8 269.3
08/05 07:10 8.8 71 6.18 3.8 9 9 1020.8 0 14.6 23.7 32.8 85.5 72.8 248.0
08/05 07:00 8.2 73 6.12 3.7 11 13 1020.6 0 14.5 23.7 32.8 85.5 72.5 247.1
08/05 06:50 7.5 72 5.77 2.8 7 7 1020.5 0 13.8 23.4 31.7 82.6 68.6 233.2
08/05 06:40 6.3 76 5.63 2.4 6 7 1020.4 0 13.5 23.4 31.6 82.4 67.8 230.3
08/05 06:30 6.5 71 5.33 1.6 7 9 1020.5 0 12.9 22.9 30.4 79.0 63.8 216.1
08/05 06:20 7.2 71 5.58 2.3 11 11 1020.1 0 13.4 23.1 31.0 80.9 66.4 225.4
08/05 06:10 6 82 5.96 3.2 7 9 1020.1 0 14.3 24.0 33.0 86.2 72.5 246.4
08/05 06:00 5.6 86 6.08 3.4 11 11 1019.9 0 14.5 24.3 33.7 87.9 74.4 253.3
08/05 05:50 5.4 82 5.73 2.6 7 9 1019.7 0 13.8 23.8 32.3 84.3 69.9 237.5
08/05 05:40 6.3 78 5.78 2.8 7 7 1019.5 0 13.9 23.7 32.2 83.9 69.8 237.0
08/05 05:30 7.7 73 5.92 3.2 7 9 1019.4 0 14.1 23.5 32.2 83.9 70.3 239.2
08/05 05:20 7.5 77 6.17 3.7 9 9 1019.4 0 14.7 24.0 33.2 86.7 73.8 251.3
08/05 05:10 7.1 80 6.24 3.9 9 11 1019.3 0 14.8 24.2 33.7 87.9 75.1 255.8
08/05 05:00 6.3 86 6.37 4.1 0 0 1019.3 0 15.1 24.6 34.5 90.2 77.6 264.5
08/05 04:50 6.3 84 6.22 3.8 0 0 1019 0 14.8 24.3 33.9 88.6 75.6 257.4
08/05 04:40 6.5 83 6.23 3.8 2 4 1018.8 0 14.8 24.3 33.9 88.4 75.5 257.2
08/05 04:30 6.6 80 6.04 3.4 9 9 1018.7 0 14.4 24.0 33.0 86.3 72.9 248.0
08/05 04:20 7.5 83 6.65 4.8 9 9 1018.7 0 15.7 24.7 35.1 91.8 80.1 273.5
08/05 04:10 7 83 6.43 4.3 9 9 1018.7 0 15.2 24.5 34.4 90.0 77.7 264.9
08/05 04:00 8.6 75 6.45 4.4 7 11 1018.5 0 15.2 24.1 33.8 88.4 76.3 260.4
08/05 03:50 8.6 76 6.53 4.6 0 0 1018.4 0 15.4 24.2 34.2 89.2 77.4 264.1
08/05 03:40 8.8 75 6.53 4.6 2 4 1018.2 0 15.4 24.1 34.1 89.0 77.2 263.4
08/05 03:30 10.5 67 6.5 4.6 13 15 1018.3 0 15.2 23.6 33.2 86.8 75.1 256.5
08/05 03:20 9.2 78 6.97 5.6 15 17 1018 0 16.3 24.7 35.6 93.2 82.5 282.3
08/05 03:10 7.5 82 6.57 4.6 15 15 1018.2 0 15.5 24.6 34.8 90.9 79.0 269.6
08/05 03:00 9 76 6.7 5 9 11 1018.2 0 15.7 24.4 34.6 90.6 79.2 270.5
08/05 02:50 9.5 73 6.65 4.9 9 9 1018.2 0 15.6 24.1 34.2 89.5 78.0 266.5
08/05 02:40 9.7 71 6.55 4.7 7 7 1018.1 0 15.4 23.9 33.8 88.2 76.5 261.3
08/05 02:30 10 70 6.58 4.8 9 11 1018.1 0 15.4 23.9 33.7 88.2 76.6 261.7
08/05 02:20 11 67 6.71 5.1 6 9 1018.1 0 15.7 23.8 33.8 88.4 77.3 264.2
08/05 02:10 11.1 66 6.65 5 9 9 1018.3 0 15.5 23.7 33.6 87.7 76.5 261.2
08/05 02:00 12 64 6.82 5.4 15 19 1018.3 0 15.9 23.8 33.8 88.4 77.7 265.8
08/05 01:50 10.9 68 6.77 5.2 11 13 1018.1 0 15.8 24.0 34.1 89.1 78.2 267.2
08/05 01:40 12 63 6.71 5.2 15 17 1017.8 0 15.6 23.6 33.4 87.3 76.3 260.8
08/05 01:30 12.1 64 6.86 5.5 15 19 1018.1 0 15.9 23.8 33.9 88.7 78.1 267.2
08/05 01:20 12 65 6.93 5.6 13 15 1018 0 16.1 23.9 34.3 89.6 79.1 270.7
08/05 01:10 12.4 63 6.88 5.6 9 11 1018.2 0 16.0 23.7 33.9 88.6 78.1 267.1
08/05 01:00 12.6 64 7.08 6 17 19 1018.1 0 16.4 24.0 34.6 90.4 80.4 275.3
08/05 00:50 12.2 66 7.12 6 15 17 1018.1 0 16.5 24.2 34.9 91.3 81.4 278.5
08/05 00:40 12.2 66 7.12 6 13 13 1018.1 0 16.5 24.2 34.9 91.3 81.4 278.5
08/05 00:30 12.6 64 7.08 6 4 13 1018.2 0 16.4 24.0 34.6 90.4 80.4 275.4
08/05 00:20 12.7 61 6.79 5.4 0 0 1018.2 0 15.8 23.5 33.4 87.4 76.7 262.2
08/05 00:10 13.6 59 6.94 5.7 6 6 1018.3 0 16.1 23.5 33.6 87.9 77.7 265.8
08/05 00:00 14.5 54 6.72 5.3 9 13 1018.4 0 15.6 23.0 32.4 84.7 74.1 253.4
07/05 23:50 15.7 50 6.69 5.3 15 15 1018.2 0 15.4 22.6 31.9 83.2 72.6 248.3
07/05 23:40 16.5 48 6.74 5.5 19 24 1018 0 15.5 22.5 31.7 82.8 72.5 247.9
07/05 23:30 14.8 55 6.97 5.9 11 17 1018.1 0 16.1 23.3 33.2 86.9 76.9 263.1
07/05 23:20 14.8 52 6.59 5.1 7 9 1018.3 0 15.3 22.7 31.8 83.1 72.2 246.9
07/05 23:10 15.8 50 6.73 5.4 13 15 1018 0 15.5 22.6 32.0 83.4 73.0 249.7
07/05 23:00 16.5 47 6.6 5.2 6 9 1018.4 0 15.2 22.3 31.2 81.5 70.8 242.2
07/05 22:50 16 50 6.81 5.6 9 11 1018.1 0 15.7 22.7 32.2 84.0 73.8 252.4
07/05 22:40 15.6 51 6.78 5.5 17 17 1018.1 0 15.6 22.8 32.2 84.1 73.8 252.4
07/05 22:30 14.8 55 6.97 5.9 13 17 1018.1 0 16.1 23.3 33.2 86.9 76.9 263.1
07/05 22:20 15.1 53 6.84 5.6 15 15 1018 0 15.8 23.0 32.6 85.3 75.0 256.5
07/05 22:10 16.5 48 6.74 5.5 7 7 1017.8 0 15.5 22.5 31.7 82.8 72.5 247.9
07/05 22:00 16.4 49 6.84 5.7 4 9 1017.8 0 15.7 22.6 32.1 83.9 73.7 252.4
07/05 21:50 17.5 45 6.71 5.4 1017.7 0 15.4 22.2 31.2 81.5 71.2 243.6
07/05 21:40 17.8 44 6.68 5.4 9 9 1017.4 0 15.3 22.1 31.0 80.9 70.6 241.4
07/05 21:30 17.9 44 6.72 5.5 13 19 1017.3 0 15.4 22.1 31.1 81.2 70.9 242.7
07/05 21:20 17.1 47 6.84 5.7 15 19 1017.2 0 15.7 22.5 31.8 83.1 73.1 250.1
07/05 21:10 18 43 6.6 5.2 6 7 1017.2 0 15.2 21.9 30.6 79.9 69.5 237.5
07/05 21:00 18.2 43 6.68 5.4 15 26 1017.1 0 15.3 22.0 30.8 80.5 70.2 240.1
07/05 20:50 18.1 43 6.64 5.3 24 28 1016.8 0 15.2 21.9 30.7 80.2 69.8 238.8
07/05 20:40 17.5 45 6.71 5.4 20 26 1016.7 0 15.4 22.2 31.2 81.4 71.1 243.4
07/05 20:30 17.4 47 6.96 6 15 20 1016.7 0 15.9 22.5 32.1 83.9 74.2 254.0
07/05 20:20 17.2 49 7.18 6.4 13 15 1016.5 0 16.4 22.9 33.0 86.2 77.0 263.8
07/05 20:10 17.1 50 7.28 6.6 11 13 1016.4 0 16.6 23.1 33.4 87.3 78.3 268.4
07/05 20:00 15.9 52 7.04 6.1 7 9 1016.5 0 16.2 23.0 33.0 86.2 76.5 262.1

Last Refresh: 08-May-2026 12:07:29

Bureau of Meteorology